Terminal Aerodrome Forecast
Issued by NWS Shreveport, LA

Home | Current Version | Previous Version | Text Only | Print | Product List | Glossary On
Versions: 1 2 3 4 5 6 7 8 9 10 11 12 13 14 15 16 17 18 19
214
FTUS44 KSHV 290528
TAFLFK
TAF
KLFK 290528Z 2906/3006 14010KT P6SM OVC025
      TEMPO 2910/2914 OVC010
     FM291400 15010KT P6SM VCTS OVC015CB
      TEMPO 2914/2918 3SM -TSRA BR OVC025CB
     FM291800 16014G24KT P6SM VCTS OVC030CB
     FM300000 17012KT P6SM VCTS OVC040CB=

USA.gov is the U.S. government's official web portal to all federal, state and local government web resources and services.